Time;durP1;ratioP1;P1;durP2;ratioP2;P2;SDS_P1;SDS_P2;PMS_P1;PMS_P2;Temp;Humidity;BMP_temperature;BMP_pressure;BME280_temperature;BME280_humidity;BME280_pressure;Samples;Min_cycle;Max_cycle;Signal;HPM_P1;HPM_P2
2022/06/22 00:01:09;;;;;;;4.90;3.77;;;;;;;13.79;100.00;99934.13;739861;1155;115542;-73
2022/06/22 00:16:24;;;;;;;6.53;4.03;;;;;;;13.83;100.00;99928.51;739790;1152;114902;-73
2022/06/22 00:31:50;;;;;;;18.57;6.30;;;;;;;13.78;100.00;99942.20;739720;1153;114061;-74
2022/06/22 00:47:04;;;;;;;7.90;4.10;;;;;;;13.63;100.00;99944.64;739862;1154;114846;-74
2022/06/22 01:02:40;;;;;;;16.80;8.68;;;;;;;13.57;100.00;99955.86;739999;1152;115003;-74
2022/06/22 01:17:59;;;;;;;6.53;3.70;;;;;;;13.68;100.00;99958.16;739813;1152;115626;-73
2022/06/22 01:33:21;;;;;;;;;;;;;;;13.68;100.00;99959.98;740044;1153;114700;-73
2022/06/22 01:48:32;;;;;;;10.85;4.10;;;;;;;13.62;100.00;99969.38;739780;1154;101808;-73
2022/06/22 02:03:43;;;;;;;9.53;4.13;;;;;;;13.61;100.00;99976.44;739934;1153;115186;-73
2022/06/22 02:18:58;;;;;;;8.33;4.60;;;;;;;13.53;100.00;99975.62;739850;1154;114978;-74
2022/06/22 02:34:02;;;;;;;14.07;8.00;;;;;;;13.27;100.00;99997.57;739864;1155;114845;-74
2022/06/22 02:49:19;;;;;;;11.85;4.53;;;;;;;13.34;100.00;100018.83;739971;1153;115082;-73
2022/06/22 03:04:21;;;;;;;14.25;5.93;;;;;;;13.42;100.00;100000.44;740396;1153;114473;-73
2022/06/22 03:19:31;;;;;;;10.20;5.85;;;;;;;13.60;100.00;99993.23;740173;1154;116078;-74
2022/06/22 03:34:39;;;;;;;;;;;;;;;13.85;100.00;99989.81;739838;1153;115099;-74
2022/06/22 03:49:57;;;;;;;11.40;5.28;;;;;;;14.02;100.00;99990.66;740272;1155;99818;-74
2022/06/22 04:05:01;;;;;;;7.53;5.20;;;;;;;14.26;100.00;100006.45;739933;1155;114816;-73
2022/06/22 04:20:17;;;;;;;8.68;5.08;;;;;;;14.58;100.00;100023.26;740731;1153;115622;-75
2022/06/22 04:35:41;;;;;;;8.90;4.58;;;;;;;14.97;100.00;100013.77;740533;1155;115664;-75
2022/06/22 04:50:47;;;;;;;11.65;5.33;;;;;;;15.29;100.00;100043.69;741218;1155;114321;-74
2022/06/22 05:05:50;;;;;;;11.13;4.78;;;;;;;15.78;100.00;100040.80;740462;1153;116074;-76
2022/06/22 05:21:15;;;;;;;10.10;5.45;;;;;;;16.40;100.00;100028.42;740228;1155;115500;-75
2022/06/22 05:36:22;;;;;;;8.60;4.25;;;;;;;16.99;100.00;100032.17;740038;1155;115154;-75
2022/06/22 05:51:51;;;;;;;14.35;4.58;;;;;;;17.58;100.00;100035.75;739918;1155;114345;-76
2022/06/22 06:06:59;;;;;;;5.93;4.30;;;;;;;18.16;100.00;100029.58;740009;1154;115066;-73
2022/06/22 06:22:04;;;;;;;8.63;3.60;;;;;;;18.67;100.00;100031.20;740247;1153;114787;-72
2022/06/22 06:37:52;;;;;;;7.17;3.93;;;;;;;19.17;98.74;100028.44;740089;1154;114353;-74
2022/06/22 06:53:21;;;;;;;7.80;3.65;;;;;;;19.76;96.60;100040.28;741187;1155;115806;-82
2022/06/22 07:08:39;;;;;;;7.93;2.93;;;;;;;20.11;92.56;100054.30;740424;1155;114560;-84
2022/06/22 07:23:55;;;;;;;7.33;3.03;;;;;;;20.73;89.88;100059.43;739826;1154;115559;-84
2022/06/22 07:39:16;;;;;;;5.13;2.67;;;;;;;21.39;87.11;100056.75;741036;1153;114045;-85
2022/06/22 07:54:54;;;;;;;5.63;2.70;;;;;;;21.63;85.44;100065.09;743261;1155;114370;-88
2022/06/22 08:10:08;;;;;;;4.55;2.43;;;;;;;22.52;82.38;100073.94;743656;1153;114012;-88
2022/06/22 08:25:13;;;;;;;6.93;2.57;;;;;;;23.36;79.31;100060.13;743737;1153;114244;-90
2022/06/22 08:40:24;;;;;;;6.53;1.88;;;;;;;24.15;76.49;100063.78;742951;1155;115724;-91
2022/06/22 08:55:51;;;;;;;2.68;2.00;;;;;;;24.33;75.40;100063.69;742626;1155;114496;-88
2022/06/22 09:11:07;;;;;;;2.88;1.55;;;;;;;24.83;72.68;100081.20;742623;1155;114849;-90
2022/06/22 09:26:57;;;;;;;3.73;1.40;;;;;;;25.03;70.58;100090.75;740907;1155;114959;-82
2022/06/22 09:42:03;;;;;;;1.93;1.50;;;;;;;24.96;70.46;100098.93;741787;1153;114468;-82
2022/06/22 09:57:24;;;;;;;2.98;1.50;;;;;;;25.36;68.56;100090.11;742396;1155;114542;-82
2022/06/22 10:12:58;;;;;;;2.58;1.80;;;;;;;26.74;67.78;100090.90;742188;1155;114756;-82
2022/06/22 10:28:28;;;;;;;1.70;1.23;;;;;;;26.30;66.64;100101.48;742903;1153;114340;-82
2022/06/22 10:59:43;;;;;;;1.53;1.23;;;;;;;27.75;64.87;100088.08;742495;1155;115853;-81
2022/06/22 11:15:42;;;;;;;3.37;1.80;;;;;;;27.45;63.14;100077.80;742238;1153;114055;-83
2022/06/22 11:30:59;;;;;;;3.68;1.88;;;;;;;28.08;64.04;100091.65;742335;1154;114291;-84
2022/06/22 11:46:16;;;;;;;3.38;1.68;;;;;;;28.81;61.74;100095.69;741996;1153;114687;-83
2022/06/22 12:01:33;;;;;;;3.28;1.88;;;;;;;27.20;61.87;100095.25;741410;1155;114161;-72
2022/06/22 12:16:53;;;;;;;2.28;1.25;;;;;;;27.94;61.72;100079.63;740123;1155;115392;-73
2022/06/22 12:32:13;;;;;;;2.15;1.48;;;;;;;28.78;59.34;100071.94;740275;1155;114348;-73
2022/06/22 12:47:31;;;;;;;6.70;1.53;;;;;;;28.97;57.91;100065.02;740999;1153;115338;-74
2022/06/22 13:02:36;;;;;;;3.47;1.50;;;;;;;30.17;58.52;100053.39;740235;1154;114562;-74
2022/06/22 13:17:45;;;;;;;2.28;1.85;;;;;;;29.75;56.76;100062.54;744269;1153;115679;-74
2022/06/22 13:33:03;;;;;;;3.83;1.87;;;;;;;29.48;57.14;100058.19;740630;1155;114440;-74
2022/06/22 13:48:25;;;;;;;3.93;1.85;;;;;;;29.25;56.25;100041.36;739969;1153;113980;-74
2022/06/22 14:03:57;;;;;;;3.97;1.47;;;;;;;29.98;56.13;100039.63;740123;1155;115476;-74
2022/06/22 14:19:26;;;;;;;2.20;1.58;;;;;;;29.49;55.02;100030.09;740401;1153;115591;-75
2022/06/22 14:35:00;;;;;;;3.07;2.03;;;;;;;29.23;55.91;100032.70;740382;1153;114208;-74
2022/06/22 14:50:09;;;;;;;2.88;1.60;;;;;;;29.14;57.23;100028.89;740371;1153;115058;-74
2022/06/22 15:05:20;;;;;;;3.33;1.20;;;;;;;28.63;55.57;100038.37;740176;1153;114486;-74
2022/06/22 15:21:01;;;;;;;2.10;1.40;;;;;;;27.82;54.70;100025.90;739649;1153;115269;-76
2022/06/22 15:36:26;;;;;;;2.13;1.90;;;;;;;28.22;55.80;100022.74;739737;1153;114025;-74
2022/06/22 15:51:46;;;;;;;4.55;1.58;;;;;;;27.56;55.13;100015.70;740052;1153;115591;-73
2022/06/22 16:06:56;;;;;;;1.75;1.23;;;;;;;27.19;54.90;100029.84;740285;1153;114655;-74
2022/06/22 16:22:18;;;;;;;3.00;1.60;;;;;;;26.70;55.32;100029.76;740396;1155;114514;-74
2022/06/22 16:37:32;;;;;;;2.98;2.05;;;;;;;27.01;56.16;100030.16;740116;1153;115381;-76
2022/06/22 16:52:45;;;;;;;2.75;2.13;;;;;;;26.71;56.57;100032.22;740622;1155;115295;-74
2022/06/22 17:08:10;;;;;;;1.87;1.27;;;;;;;26.53;56.79;100030.59;741602;1154;115646;-77
2022/06/22 17:23:37;;;;;;;3.18;1.80;;;;;;;26.70;57.34;100014.42;741506;1155;115542;-77
2022/06/22 17:38:43;;;;;;;2.20;1.75;;;;;;;26.35;57.49;100026.29;741157;1155;115054;-76
2022/06/22 17:53:45;;;;;;;3.05;1.90;;;;;;;26.25;59.11;100026.16;741015;1155;114116;-71
2022/06/22 18:09:05;;;;;;;8.33;4.40;;;;;;;25.33;60.68;100028.83;740990;1155;116004;-70
2022/06/22 18:24:24;;;;;;;5.40;3.10;;;;;;;24.55;64.34;100049.72;741952;1153;115582;-70
2022/06/22 18:55:27;;;;;;;6.03;3.07;;;;;;;23.51;69.71;100061.59;741209;1155;114167;-71
2022/06/22 19:10:33;;;;;;;7.45;3.65;;;;;;;22.97;71.06;100080.91;741849;1153;115221;-71
2022/06/22 19:25:55;;;;;;;8.03;4.30;;;;;;;22.48;74.06;100095.99;743305;1154;115587;-71
2022/06/22 19:41:18;;;;;;;5.75;3.85;;;;;;;21.97;75.73;100101.23;740540;1153;115568;-72
2022/06/22 19:56:25;;;;;;;7.88;4.33;;;;;;;21.50;77.56;100116.63;740195;1153;115298;-72
2022/06/22 20:11:45;;;;;;;16.95;8.75;;;;;;;21.10;79.47;100123.75;739874;1155;114206;-72
2022/06/22 20:27:03;;;;;;;17.33;8.80;;;;;;;20.53;81.45;100144.66;739987;1155;115697;-72
2022/06/22 20:42:09;;;;;;;8.83;5.65;;;;;;;20.03;83.55;100152.97;740149;1153;114663;-71
2022/06/22 20:57:23;;;;;;;14.63;7.20;;;;;;;19.79;85.21;100163.13;739823;1153;114733;-71
2022/06/22 21:12:38;;;;;;;15.45;7.80;;;;;;;19.43;86.94;100176.66;739788;1153;115849;-72
2022/06/22 21:27:44;;;;;;;15.38;6.88;;;;;;;19.08;87.43;100184.61;739801;1155;114630;-72
2022/06/22 21:43:09;;;;;;;12.45;6.83;;;;;;;18.73;89.22;100193.30;739927;1153;115789;-73
2022/06/22 21:58:31;;;;;;;20.10;9.38;;;;;;;18.50;90.10;100195.34;739920;1155;114903;-72
2022/06/22 22:13:40;;;;;;;15.40;9.10;;;;;;;18.23;90.99;100209.16;741825;1154;115334;-72
2022/06/22 22:28:51;;;;;;;18.10;10.20;;;;;;;17.99;92.36;100214.78;741290;1155;115526;-72
2022/06/22 22:44:01;;;;;;;8.65;5.80;;;;;;;17.61;92.58;100229.78;739696;1153;114953;-72
2022/06/22 22:59:07;;;;;;;8.60;4.70;;;;;;;17.44;92.93;100225.67;739769;1153;114153;-71
2022/06/22 23:14:29;;;;;;;18.50;9.25;;;;;;;17.20;94.42;100232.86;739514;1155;115357;-71
2022/06/22 23:29:39;;;;;;;14.85;8.13;;;;;;;16.82;95.23;100226.70;739802;1155;115568;-70
2022/06/22 23:44:44;;;;;;;13.20;6.33;;;;;;;16.57;95.93;100219.73;739581;1155;115479;-70
2022/06/22 23:59:46;;;;;;;14.73;6.88;;;;;;;16.48;96.34;100228.73;739725;1155;115485;-71
